createdAt,value
2022-12-19T00:01:20.419Z,97349.00
2022-12-19T00:03:46.857Z,97365.03
2022-12-19T00:06:13.245Z,97345.03
2022-12-19T00:08:39.632Z,97341.06
2022-12-19T00:11:06.065Z,97342.56
2022-12-19T00:13:33.650Z,97341.44
2022-12-19T00:16:07.280Z,97341.34
2022-12-19T00:18:33.678Z,97345.13
2022-12-19T00:21:00.080Z,97346.72
2022-12-19T00:23:26.432Z,97347.00
2022-12-19T00:25:52.837Z,97341.56
2022-12-19T00:28:20.225Z,97339.78
2022-12-19T00:30:47.813Z,97325.94
2022-12-19T00:33:14.171Z,97325.69
2022-12-19T00:35:40.552Z,97326.66
2022-12-19T00:38:06.936Z,97319.84
2022-12-19T00:40:33.322Z,97322.84
2022-12-19T00:42:59.701Z,97322.59
2022-12-19T00:45:27.115Z,97324.31
2022-12-19T00:47:55.549Z,97310.66
2022-12-19T00:50:21.894Z,97315.38
2022-12-19T00:52:48.236Z,97317.31
2022-12-19T00:55:18.410Z,97334.28
2022-12-19T00:57:45.646Z,97332.69
2022-12-19T01:00:11.988Z,97321.69
2022-12-19T01:02:38.513Z,97317.22
2022-12-19T01:05:05.024Z,97312.84
2022-12-19T01:07:31.376Z,97308.28
2022-12-19T01:09:57.755Z,97308.06
2022-12-19T01:12:24.573Z,97306.25
2022-12-19T01:14:51.387Z,97311.53
2022-12-19T01:17:17.757Z,97321.81
2022-12-19T01:19:44.849Z,97305.38
2022-12-19T01:22:11.290Z,97311.53
2022-12-19T01:24:37.775Z,97313.56
2022-12-19T01:27:04.182Z,97310.91
2022-12-19T01:29:30.538Z,97317.13
2022-12-19T01:31:58.504Z,97320.41
2022-12-19T01:34:24.921Z,97320.31
2022-12-19T01:36:51.280Z,97324.16
2022-12-19T01:39:17.661Z,97319.13
2022-12-19T01:41:44.011Z,97313.88
2022-12-19T01:44:10.343Z,97317.63
2022-12-19T01:46:36.787Z,97304.66
2022-12-19T01:49:03.235Z,97302.47
2022-12-19T01:51:29.620Z,97300.78
2022-12-19T01:53:55.971Z,97300.28
2022-12-19T01:56:22.296Z,97306.50
2022-12-19T01:58:48.701Z,97306.88
2022-12-19T02:01:15.159Z,97300.88
2022-12-19T02:03:41.591Z,97307.50
2022-12-19T02:06:07.989Z,97300.25
2022-12-19T02:08:34.377Z,97303.09
2022-12-19T02:11:01.366Z,97304.63
2022-12-19T02:13:27.798Z,97304.50
2022-12-19T02:15:54.189Z,97297.75
2022-12-19T02:18:20.549Z,97296.22
2022-12-19T02:20:46.889Z,97300.25
2022-12-19T02:23:13.263Z,97311.75
2022-12-19T02:25:40.224Z,97305.19
2022-12-19T02:28:06.816Z,97299.41
2022-12-19T02:30:33.443Z,97310.03
2022-12-19T02:32:59.838Z,97297.50
2022-12-19T02:35:26.219Z,97292.47
2022-12-19T02:37:52.604Z,97291.84
2022-12-19T02:40:20.440Z,97292.94
2022-12-19T02:42:46.840Z,97284.91
2022-12-19T02:45:13.210Z,97285.41
2022-12-19T02:47:43.143Z,97279.91
2022-12-19T02:50:09.496Z,97275.31
2022-12-19T02:52:35.882Z,97276.31
2022-12-19T02:55:02.280Z,97275.06
2022-12-19T02:57:28.636Z,97280.63
2022-12-19T02:59:55.389Z,97287.16
2022-12-19T03:02:23.397Z,97299.97
2022-12-19T03:04:49.849Z,97300.66
2022-12-19T03:07:16.240Z,97302.28
2022-12-19T03:09:42.851Z,97285.13
2022-12-19T03:12:11.623Z,97287.53
2022-12-19T03:14:40.532Z,97286.28
2022-12-19T03:17:06.962Z,97275.06
2022-12-19T03:19:33.397Z,97286.63
2022-12-19T03:21:59.756Z,97288.94
2022-12-19T03:24:26.402Z,97292.81
2022-12-19T03:26:52.831Z,97293.66
2022-12-19T03:29:19.187Z,97300.44
2022-12-19T03:31:45.521Z,97304.13
2022-12-19T03:34:11.864Z,97295.69
2022-12-19T03:36:38.257Z,97289.28
2022-12-19T03:39:04.969Z,97287.34
2022-12-19T03:41:31.364Z,97287.69
2022-12-19T03:43:57.723Z,97286.75
2022-12-19T03:46:24.308Z,97280.19
2022-12-19T03:48:50.681Z,97295.16
2022-12-19T03:51:17.071Z,97289.19
2022-12-19T03:53:43.421Z,97295.84
2022-12-19T03:56:09.801Z,97291.50
2022-12-19T03:58:36.210Z,97299.66
2022-12-19T04:01:02.601Z,97284.25
2022-12-19T04:03:29.060Z,97284.16
2022-12-19T04:05:55.483Z,97281.00
2022-12-19T04:08:21.900Z,97281.31
2022-12-19T04:10:48.288Z,97280.00
2022-12-19T04:13:14.663Z,97271.88
2022-12-19T04:15:41.087Z,97272.47
2022-12-19T04:18:07.497Z,97274.63
2022-12-19T04:20:34.322Z,97274.56
2022-12-19T04:23:00.726Z,97273.16
2022-12-19T04:25:29.504Z,97266.44
2022-12-19T04:27:56.105Z,97276.25
2022-12-19T04:30:22.490Z,97281.50
2022-12-19T04:32:48.855Z,97271.88
2022-12-19T04:35:15.223Z,97282.84
2022-12-19T04:37:41.588Z,97274.06
2022-12-19T04:40:07.958Z,97277.31
2022-12-19T04:42:34.305Z,97272.84
2022-12-19T04:45:00.654Z,97273.91
2022-12-19T04:47:27.033Z,97272.06
2022-12-19T04:49:53.391Z,97256.91
2022-12-19T04:52:19.788Z,97264.66
2022-12-19T04:54:46.144Z,97259.06
2022-12-19T04:57:12.524Z,97273.44
2022-12-19T04:59:38.911Z,97267.47
2022-12-19T05:02:05.363Z,97267.38
2022-12-19T05:04:31.853Z,97264.41
2022-12-19T05:06:58.235Z,97258.38
2022-12-19T05:09:25.198Z,97263.00
2022-12-19T05:11:51.597Z,97272.63
2022-12-19T05:14:17.948Z,97262.44
2022-12-19T05:16:44.429Z,97259.88
2022-12-19T05:19:10.795Z,97256.88
2022-12-19T05:21:37.140Z,97253.69
2022-12-19T05:24:03.540Z,97246.41
2022-12-19T05:26:29.923Z,97250.16
2022-12-19T05:28:56.354Z,97253.97
2022-12-19T05:31:22.774Z,97256.13
2022-12-19T05:33:49.397Z,97252.69
2022-12-19T05:36:15.788Z,97251.28
2022-12-19T05:38:42.154Z,97243.25
2022-12-19T05:41:08.492Z,97249.38
2022-12-19T05:43:34.880Z,97248.00
2022-12-19T05:46:01.294Z,97250.88
2022-12-19T05:48:27.680Z,97254.09
2022-12-19T05:50:54.067Z,97247.41
2022-12-19T05:53:24.611Z,97246.00
2022-12-19T05:55:52.337Z,97234.81
2022-12-19T05:58:18.762Z,97238.88
2022-12-19T06:00:45.162Z,97232.78
2022-12-19T06:03:11.676Z,97241.81
2022-12-19T06:05:38.142Z,97238.31
2022-12-19T06:08:04.522Z,97239.97
2022-12-19T06:10:30.940Z,97232.81
2022-12-19T06:12:57.305Z,97232.72
2022-12-19T06:15:23.660Z,97242.34
2022-12-19T06:17:50.006Z,97239.97
2022-12-19T06:20:16.374Z,97222.22
2022-12-19T06:22:42.783Z,97242.63
2022-12-19T06:25:09.182Z,97248.81
2022-12-19T06:27:35.550Z,97245.56
2022-12-19T06:30:01.914Z,97245.75
2022-12-19T06:32:28.267Z,97233.63
2022-12-19T06:35:04.076Z,97238.72
2022-12-19T06:37:30.668Z,97249.06
2022-12-19T06:39:57.009Z,97243.09
2022-12-19T06:42:23.387Z,97237.72
2022-12-19T06:44:49.788Z,97234.94
2022-12-19T06:47:16.137Z,97232.13
2022-12-19T06:49:42.479Z,97232.56
2022-12-19T06:52:09.338Z,97232.13
2022-12-19T06:54:35.810Z,97236.00
2022-12-19T06:57:02.216Z,97239.19
2022-12-19T06:59:28.578Z,97231.50
2022-12-19T07:01:55.051Z,97241.56
2022-12-19T07:04:21.768Z,97238.72
2022-12-19T07:06:49.410Z,97232.13
2022-12-19T07:09:15.933Z,97232.44
2022-12-19T07:11:42.278Z,97231.75
2022-12-19T07:14:08.659Z,97232.72
2022-12-19T07:16:37.227Z,97242.88
2022-12-19T07:19:03.677Z,97239.19
2022-12-19T07:21:30.035Z,97238.13
2022-12-19T07:23:56.414Z,97237.38
2022-12-19T07:26:22.801Z,97235.13
2022-12-19T07:28:49.160Z,97240.78
2022-12-19T07:31:15.586Z,97250.53
2022-12-19T07:33:41.949Z,97246.69
2022-12-19T07:36:08.321Z,97246.34
2022-12-19T07:38:34.713Z,97257.38
2022-12-19T07:41:01.116Z,97255.28
2022-12-19T07:43:27.513Z,97257.22
2022-12-19T07:45:53.946Z,97266.75
2022-12-19T07:48:20.385Z,97259.41
2022-12-19T07:50:46.750Z,97267.44
2022-12-19T07:53:13.142Z,97261.03
2022-12-19T07:55:39.545Z,97268.91
2022-12-19T07:58:05.936Z,97269.63
2022-12-19T08:00:32.340Z,97276.66
2022-12-19T08:02:58.899Z,97272.38
2022-12-19T08:05:25.381Z,97263.75
2022-12-19T08:07:51.803Z,97270.41
2022-12-19T08:10:18.181Z,97268.72
2022-12-19T08:12:44.526Z,97276.00
2022-12-19T08:15:11.007Z,97280.03
2022-12-19T08:17:37.783Z,97274.00
2022-12-19T08:20:04.140Z,97269.06
2022-12-19T08:22:30.676Z,97276.44
2022-12-19T08:24:57.067Z,97278.50
2022-12-19T08:27:23.471Z,97280.94
2022-12-19T08:29:49.869Z,97288.34
2022-12-19T08:32:20.774Z,97291.00
2022-12-19T08:34:47.711Z,97278.59
2022-12-19T08:37:14.095Z,97286.03
2022-12-19T08:39:40.506Z,97285.84
2022-12-19T08:42:06.912Z,97283.81
2022-12-19T08:44:33.304Z,97283.41
2022-12-19T08:46:59.686Z,97284.97
2022-12-19T08:49:26.088Z,97285.03
2022-12-19T08:51:52.492Z,97282.84
2022-12-19T08:54:18.866Z,97282.94
2022-12-19T08:56:46.855Z,97276.16
2022-12-19T08:59:13.597Z,97291.06
2022-12-19T09:01:42.413Z,97299.53
2022-12-19T09:05:47.727Z,97285.47
2022-12-19T09:06:55.293Z,97294.31
2022-12-19T09:09:21.644Z,97291.13
2022-12-19T09:11:48.438Z,97295.53
2022-12-19T09:14:14.912Z,97289.09
2022-12-19T09:16:47.006Z,97294.72
2022-12-19T09:19:13.496Z,97292.69
2022-12-19T09:21:39.916Z,97300.38
2022-12-19T09:24:08.145Z,97301.03
2022-12-19T09:26:34.623Z,97301.16
2022-12-19T09:29:01.044Z,97305.16
2022-12-19T09:31:28.807Z,97314.88
2022-12-19T09:33:55.183Z,97307.63
2022-12-19T09:36:21.548Z,97308.59
2022-12-19T09:38:47.960Z,97306.34
2022-12-19T09:41:15.801Z,97300.34
2022-12-19T09:43:44.421Z,97305.97
2022-12-19T09:46:10.811Z,97295.53
2022-12-19T09:48:37.174Z,97305.19
2022-12-19T09:51:09.610Z,97305.66
2022-12-19T09:53:37.334Z,97296.59
2022-12-19T09:56:03.690Z,97303.63
2022-12-19T09:58:30.054Z,97299.19
2022-12-19T10:00:59.680Z,97291.34
2022-12-19T10:03:32.272Z,97301.59
2022-12-19T10:07:09.383Z,97303.41
2022-12-19T10:09:26.851Z,97296.31
2022-12-19T10:12:43.497Z,97295.13
2022-12-19T10:14:25.598Z,97281.00
2022-12-19T10:17:22.484Z,97281.81
2022-12-19T10:19:39.936Z,97279.03
2022-12-19T10:22:18.254Z,97274.03
2022-12-19T10:24:46.478Z,97275.97
2022-12-19T10:27:30.214Z,97270.09
2022-12-19T10:29:56.633Z,97272.88
2022-12-19T10:32:23.038Z,97265.28
2022-12-19T10:34:49.442Z,97272.97
2022-12-19T10:37:24.360Z,97269.28
2022-12-19T10:39:55.958Z,97276.66
2022-12-19T10:42:22.406Z,97267.22
2022-12-19T10:44:48.777Z,97265.28
2022-12-19T10:47:15.190Z,97269.34
2022-12-19T10:49:41.601Z,97254.81
2022-12-19T10:52:08.057Z,97259.47
2022-12-19T10:54:34.463Z,97263.84
2022-12-19T10:57:07.394Z,97255.19
2022-12-19T10:59:33.800Z,97252.91
2022-12-19T11:02:01.191Z,97256.56
2022-12-19T11:04:28.170Z,97252.66
2022-12-19T11:06:54.525Z,97247.41
2022-12-19T11:09:21.000Z,97252.06
2022-12-19T11:14:30.409Z,97246.81
2022-12-19T11:19:18.740Z,97245.53
2022-12-19T11:23:40.153Z,97235.06
2022-12-19T11:29:31.808Z,97235.59
2022-12-19T11:29:37.162Z,97237.50
2022-12-19T11:30:06.588Z,97230.47
2022-12-19T11:30:25.886Z,97228.31
2022-12-19T11:33:58.329Z,97229.50
2022-12-19T11:36:24.703Z,97228.00
2022-12-19T11:38:51.054Z,97230.66
2022-12-19T11:41:17.404Z,97228.59
2022-12-19T11:43:45.918Z,97227.38
2022-12-19T11:46:17.658Z,97223.09
2022-12-19T11:48:47.663Z,97215.28
2022-12-19T11:51:14.017Z,97216.97
2022-12-19T11:53:40.383Z,97213.25
2022-12-19T11:56:08.109Z,97214.47
2022-12-19T11:58:43.032Z,97205.97
2022-12-19T12:01:10.031Z,97209.13
2022-12-19T12:03:36.497Z,97208.34
2022-12-19T12:06:02.911Z,97201.34
2022-12-19T12:10:35.929Z,97209.09
2022-12-19T12:18:40.779Z,97200.06
2022-12-19T12:24:20.693Z,97201.44
2022-12-19T12:30:12.888Z,97197.69
2022-12-19T12:31:19.068Z,97183.06
2022-12-19T12:31:27.172Z,97191.22
2022-12-19T12:31:38.596Z,97178.13
2022-12-19T12:31:49.891Z,97194.13
2022-12-19T12:32:06.317Z,97184.31
2022-12-19T12:35:32.783Z,97185.31
2022-12-19T12:38:59.283Z,97175.47
2022-12-19T12:41:25.700Z,97178.38
2022-12-19T12:43:52.110Z,97176.66
2022-12-19T12:46:18.538Z,97180.41
2022-12-19T12:48:44.939Z,97172.63
2022-12-19T12:51:11.296Z,97183.97
2022-12-19T12:53:37.642Z,97186.13
2022-12-19T12:56:06.598Z,97175.91
2022-12-19T12:58:33.626Z,97174.97
2022-12-19T13:01:00.056Z,97153.91
2022-12-19T13:03:26.527Z,97160.22
2022-12-19T13:05:52.945Z,97167.59
2022-12-19T13:08:19.316Z,97171.53
2022-12-19T13:10:45.701Z,97167.28
2022-12-19T13:13:15.701Z,97162.41
2022-12-19T13:15:43.819Z,97154.25
2022-12-19T13:18:10.179Z,97159.88
2022-12-19T13:20:36.572Z,97168.19
2022-12-19T13:23:02.943Z,97162.28
2022-12-19T13:25:29.331Z,97155.28
2022-12-19T13:27:57.680Z,97149.81
2022-12-19T13:30:25.094Z,97153.53
2022-12-19T13:32:51.529Z,97166.50
2022-12-19T13:36:38.932Z,97162.06
2022-12-19T13:40:00.504Z,97158.56
2022-12-19T13:40:50.585Z,97157.16
2022-12-19T13:43:16.946Z,97151.09
2022-12-19T13:45:43.385Z,97154.91
2022-12-19T13:48:09.814Z,97148.22
2022-12-19T13:50:37.049Z,97149.09
2022-12-19T13:53:03.443Z,97157.63
2022-12-19T13:55:29.798Z,97158.13
2022-12-19T13:57:56.183Z,97163.94
2022-12-19T14:00:22.583Z,97159.13
2022-12-19T14:02:49.231Z,97160.59
2022-12-19T14:05:15.782Z,97163.66
2022-12-19T14:07:42.149Z,97168.41
2022-12-19T14:11:35.949Z,97183.06
2022-12-19T14:13:53.115Z,97174.25
2022-12-19T14:15:41.289Z,97170.06
2022-12-19T14:18:42.857Z,97173.88
2022-12-19T14:22:10.257Z,97167.28
2022-12-19T14:23:43.636Z,97166.25
2022-12-19T14:28:21.289Z,97165.19
2022-12-19T14:28:57.116Z,97168.91
2022-12-19T14:31:23.545Z,97179.13
2022-12-19T14:36:36.245Z,97173.19
2022-12-19T14:39:22.941Z,97171.13
2022-12-19T14:41:49.006Z,97172.50
2022-12-19T14:53:08.459Z,97175.09
2022-12-19T14:53:52.227Z,97170.66
2022-12-19T14:54:23.410Z,97173.38
2022-12-19T14:54:31.209Z,97180.88
2022-12-19T14:56:19.521Z,97183.63
2022-12-19T14:58:53.360Z,97171.34
2022-12-19T15:01:09.086Z,97179.13
2022-12-19T15:03:37.732Z,97180.56
2022-12-19T15:07:05.897Z,97177.47
2022-12-19T15:10:58.224Z,97177.53
2022-12-19T15:11:54.066Z,97176.84
2022-12-19T15:14:50.663Z,97180.66
2022-12-19T15:17:10.081Z,97171.28
2022-12-19T15:19:36.440Z,97163.75
2022-12-19T15:22:02.815Z,97173.88
2022-12-19T15:24:29.184Z,97174.44
2022-12-19T15:26:55.841Z,97178.91
2022-12-19T15:29:22.502Z,97175.53
2022-12-19T15:31:48.979Z,97169.81
2022-12-19T15:34:34.082Z,97162.22
2022-12-19T15:37:01.701Z,97163.75
2022-12-19T15:39:28.063Z,97154.63
2022-12-19T15:41:54.419Z,97152.78
2022-12-19T15:44:20.813Z,97178.00
2022-12-19T15:46:49.415Z,97183.56
2022-12-19T15:49:16.129Z,97181.19
2022-12-19T15:51:42.536Z,97170.34
2022-12-19T15:54:46.760Z,97171.22
2022-12-19T15:56:55.289Z,97180.47
2022-12-19T15:59:21.711Z,97178.47
2022-12-19T16:01:48.147Z,97180.69
2022-12-19T16:04:14.800Z,97181.47
2022-12-19T16:06:41.366Z,97171.25
2022-12-19T16:09:07.748Z,97160.78
2022-12-19T16:11:34.096Z,97170.41
2022-12-19T16:14:00.446Z,97162.97
2022-12-19T16:16:26.879Z,97167.59
2022-12-19T16:18:53.288Z,97170.81
2022-12-19T16:21:19.649Z,97165.59
2022-12-19T16:23:46.002Z,97157.13
2022-12-19T16:26:12.370Z,97153.53
2022-12-19T16:28:38.721Z,97150.28
2022-12-19T16:31:05.164Z,97149.91
2022-12-19T16:33:31.559Z,97147.50
2022-12-19T16:36:06.469Z,97139.06
2022-12-19T16:38:33.551Z,97132.81
2022-12-19T16:41:00.114Z,97138.25
2022-12-19T16:43:26.515Z,97141.44
2022-12-19T16:45:55.724Z,97135.22
2022-12-19T16:48:26.315Z,97138.19
2022-12-19T16:50:52.673Z,97131.16
2022-12-19T16:53:19.098Z,97132.56
2022-12-19T16:55:45.532Z,97143.03
2022-12-19T16:58:11.907Z,97137.38
2022-12-19T17:00:38.313Z,97143.81
2022-12-19T17:03:04.729Z,97138.97
2022-12-19T17:05:31.230Z,97136.19
2022-12-19T17:07:57.651Z,97136.19
2022-12-19T17:10:26.401Z,97134.56
2022-12-19T17:12:52.981Z,97137.81
2022-12-19T17:15:19.382Z,97146.66
2022-12-19T17:17:45.818Z,97146.50
2022-12-19T17:20:12.165Z,97139.44
2022-12-19T17:22:38.559Z,97135.75
2022-12-19T17:25:04.923Z,97130.53
2022-12-19T17:27:31.279Z,97124.34
2022-12-19T17:29:57.700Z,97134.59
2022-12-19T17:32:24.780Z,97131.63
2022-12-19T17:34:51.292Z,97139.44
2022-12-19T17:37:17.650Z,97137.41
2022-12-19T17:39:44.034Z,97134.63
2022-12-19T17:42:10.402Z,97126.16
2022-12-19T17:44:36.812Z,97118.47
2022-12-19T17:47:03.217Z,97124.00
2022-12-19T17:49:29.578Z,97124.69
2022-12-19T17:51:55.918Z,97129.81
2022-12-19T17:54:22.315Z,97128.59
2022-12-19T17:56:48.747Z,97135.03
2022-12-19T17:59:15.103Z,97126.56
2022-12-19T18:01:41.559Z,97132.41
2022-12-19T18:04:08.135Z,97121.38
2022-12-19T18:06:34.478Z,97135.03
2022-12-19T18:09:00.814Z,97131.81
2022-12-19T18:11:27.244Z,97132.22
2022-12-19T18:13:53.675Z,97126.06
2022-12-19T18:16:20.138Z,97118.88
2022-12-19T18:18:46.577Z,97114.91
2022-12-19T18:21:12.936Z,97123.34
2022-12-19T18:23:39.324Z,97118.97
2022-12-19T18:26:05.717Z,97122.75
2022-12-19T18:28:32.080Z,97124.19
2022-12-19T18:30:58.541Z,97122.91
2022-12-19T18:33:24.984Z,97122.09
2022-12-19T18:35:51.340Z,97123.31
2022-12-19T18:38:17.732Z,97122.56
2022-12-19T18:40:44.148Z,97127.94
2022-12-19T18:43:10.486Z,97123.19
2022-12-19T18:45:36.998Z,97130.22
2022-12-19T18:48:03.482Z,97123.56
2022-12-19T18:50:29.894Z,97129.41
2022-12-19T18:52:56.296Z,97118.72
2022-12-19T18:55:22.681Z,97117.53
2022-12-19T18:57:49.069Z,97120.38
2022-12-19T19:00:15.434Z,97114.50
2022-12-19T19:02:41.905Z,97120.16
2022-12-19T19:05:08.395Z,97116.94
2022-12-19T19:07:34.779Z,97124.53
2022-12-19T19:10:01.153Z,97118.50
2022-12-19T19:12:27.547Z,97121.75
2022-12-19T19:14:53.933Z,97116.09
2022-12-19T19:17:20.349Z,97104.44
2022-12-19T19:19:46.743Z,97104.47
2022-12-19T19:22:13.114Z,97096.78
2022-12-19T19:24:39.525Z,97098.41
2022-12-19T19:27:05.929Z,97108.09
2022-12-19T19:29:32.286Z,97110.84
2022-12-19T19:31:58.688Z,97095.78
2022-12-19T19:34:25.046Z,97104.81
2022-12-19T19:36:51.471Z,97099.59
2022-12-19T19:39:17.869Z,97104.69
2022-12-19T19:41:44.243Z,97104.88
2022-12-19T19:44:10.647Z,97109.50
2022-12-19T19:46:37.123Z,97102.47
2022-12-19T19:49:03.568Z,97098.59
2022-12-19T19:51:29.944Z,97096.25
2022-12-19T19:53:56.307Z,97094.00
2022-12-19T19:56:22.715Z,97099.22
2022-12-19T19:58:49.109Z,97102.25
2022-12-19T20:01:15.576Z,97099.03
2022-12-19T20:03:42.124Z,97086.78
2022-12-19T20:06:09.281Z,97095.22
2022-12-19T20:08:39.693Z,97090.81
2022-12-19T20:11:06.710Z,97089.19
2022-12-19T20:13:33.103Z,97083.19
2022-12-19T20:15:59.525Z,97092.84
2022-12-19T20:18:25.968Z,97085.94
2022-12-19T20:20:52.309Z,97084.19
2022-12-19T20:23:18.708Z,97097.59
2022-12-19T20:25:45.057Z,97108.50
2022-12-19T20:28:11.461Z,97097.16
2022-12-19T20:30:37.867Z,97105.25
2022-12-19T20:33:04.267Z,97100.44
2022-12-19T20:35:30.643Z,97095.56
2022-12-19T20:37:57.010Z,97106.44
2022-12-19T20:40:23.404Z,97098.38
2022-12-19T20:42:49.778Z,97112.00
2022-12-19T20:45:16.298Z,97098.31
2022-12-19T20:47:42.705Z,97097.03
2022-12-19T20:50:09.095Z,97102.84
2022-12-19T20:52:35.523Z,97092.91
2022-12-19T20:55:01.881Z,97097.63
2022-12-19T20:57:28.266Z,97098.13
2022-12-19T20:59:54.653Z,97098.56
2022-12-19T21:02:21.124Z,97101.91
2022-12-19T21:04:47.695Z,97100.16
2022-12-19T21:07:14.148Z,97096.31
2022-12-19T21:09:40.508Z,97092.78
2022-12-19T21:12:07.056Z,97089.56
2022-12-19T21:14:33.413Z,97096.00
2022-12-19T21:16:59.811Z,97085.97
2022-12-19T21:19:26.219Z,97094.03
2022-12-19T21:21:52.597Z,97083.53
2022-12-19T21:24:19.058Z,97081.16
2022-12-19T21:26:45.451Z,97074.31
2022-12-19T21:29:11.856Z,97071.91
2022-12-19T21:31:38.258Z,97063.44
2022-12-19T21:34:04.657Z,97070.69
2022-12-19T21:36:31.109Z,97059.88
2022-12-19T21:38:57.539Z,97063.06
2022-12-19T21:41:24.011Z,97053.19
2022-12-19T21:43:51.139Z,97052.53
2022-12-19T21:46:17.577Z,97057.44
2022-12-19T21:48:44.032Z,97058.00
2022-12-19T21:51:10.450Z,97056.00
2022-12-19T21:53:36.831Z,97048.59
2022-12-19T21:56:03.202Z,97044.16
2022-12-19T21:58:29.587Z,97054.66
2022-12-19T22:00:55.958Z,97055.84
2022-12-19T22:03:22.460Z,97053.03
2022-12-19T22:05:48.905Z,97052.63
2022-12-19T22:08:15.320Z,97033.69
2022-12-19T22:10:41.699Z,97041.75
2022-12-19T22:13:08.113Z,97044.56
2022-12-19T22:15:34.525Z,97049.38
2022-12-19T22:18:00.893Z,97045.31
2022-12-19T22:20:27.256Z,97040.81
2022-12-19T22:22:53.644Z,97039.09
2022-12-19T22:25:19.996Z,97039.59
2022-12-19T22:27:46.330Z,97030.91
2022-12-19T22:30:12.673Z,97051.28
2022-12-19T22:32:39.051Z,97048.81
2022-12-19T22:35:05.410Z,97050.81
2022-12-19T22:37:31.866Z,97044.75
2022-12-19T22:39:58.350Z,97036.66
2022-12-19T22:42:24.750Z,97025.41
2022-12-19T22:44:51.147Z,97022.94
2022-12-19T22:47:17.497Z,97032.47
2022-12-19T22:49:43.889Z,97029.44
2022-12-19T22:52:10.287Z,97013.56
2022-12-19T22:54:36.682Z,97029.00
2022-12-19T22:57:03.042Z,97026.38
2022-12-19T22:59:29.413Z,97018.88
2022-12-19T23:01:55.898Z,97027.31
2022-12-19T23:04:22.571Z,97027.06
2022-12-19T23:06:49.000Z,97020.16
2022-12-19T23:09:15.386Z,97025.88
2022-12-19T23:11:41.733Z,97036.28
2022-12-19T23:14:08.134Z,97027.19
2022-12-19T23:16:34.596Z,97032.00
2022-12-19T23:19:01.044Z,97025.75
2022-12-19T23:21:27.411Z,97032.81
2022-12-19T23:23:53.779Z,97036.28
2022-12-19T23:26:20.114Z,97031.13
2022-12-19T23:28:46.475Z,97030.56
2022-12-19T23:31:12.868Z,97027.66
2022-12-19T23:33:39.296Z,97038.94
2022-12-19T23:36:05.722Z,97030.88
2022-12-19T23:38:32.119Z,97019.22
2022-12-19T23:40:58.488Z,97025.63
2022-12-19T23:43:24.856Z,97031.72
2022-12-19T23:45:51.469Z,97026.44
2022-12-19T23:48:17.846Z,97027.56
2022-12-19T23:50:44.184Z,97025.22
2022-12-19T23:53:10.556Z,97018.34
2022-12-19T23:55:36.931Z,97020.34
2022-12-19T23:58:07.879Z,97021.25
